Time;durP1;ratioP1;P1;durP2;ratioP2;P2;SDS_P1;SDS_P2;PMS_P1;PMS_P2;Temp;Humidity;BMP_temperature;BMP_pressure;BME280_temperature;BME280_humidity;BME280_pressure;Samples;Min_cycle;Max_cycle;Signal;HPM_P1;HPM_P2
2021/08/31 00:00:32;;;;;;;;;15.00;13.67;;;;;;;;5071031;28;52396;-56
2021/08/31 00:02:57;;;;;;;;;16.00;15.75;;;;;;;;5073406;28;50997;-57
2021/08/31 00:05:23;;;;;;;;;17.00;16.67;;;;;;;;5075063;28;51155;-56
2021/08/31 00:07:48;;;;;;;;;15.00;14.00;;;;;;;;5074543;28;51262;-56
2021/08/31 00:10:13;;;;;;;;;20.00;17.25;;;;;;;;5064756;27;52187;-57
2021/08/31 00:12:39;;;;;;;;;14.67;13.33;;;;;;;;5073713;28;51056;-55
2021/08/31 00:15:05;;;;;;;;;16.75;15.75;;;;;;;;5060954;28;51190;-56
2021/08/31 00:17:30;;;;;;;;;14.33;14.00;;;;;;;;5074819;28;50888;-56
2021/08/31 00:19:55;;;;;;;;;14.33;14.00;;;;;;;;5074335;28;51007;-57
2021/08/31 00:22:21;;;;;;;;;18.50;16.00;;;;;;;;5074289;28;50915;-56
2021/08/31 00:24:46;;;;;;;;;14.00;13.33;;;;;;;;5069917;28;51119;-56
2021/08/31 00:27:11;;;;;;;;;16.00;15.00;;;;;;;;5067072;28;51378;-56
2021/08/31 00:29:36;;;;;;;;;17.00;16.00;;;;;;;;5056016;28;52744;-57
2021/08/31 00:32:02;;;;;;;;;12.00;11.00;;;;;;;;5074682;28;50878;-56
2021/08/31 00:34:27;;;;;;;;;15.00;14.00;;;;;;;;5072416;28;51182;-57
2021/08/31 00:36:52;;;;;;;;;13.33;13.33;;;;;;;;5074339;28;51187;-56
2021/08/31 00:39:19;;;;;;;;;15.67;15.33;;;;;;;;5065285;28;52417;-56
2021/08/31 00:41:44;;;;;;;;;17.33;15.33;;;;;;;;5074443;28;51112;-55
2021/08/31 00:44:35;;;;;;;;;16.00;13.67;;;;;;;;5071712;28;51200;-56
2021/08/31 00:47:04;;;;;;;;;16.00;15.00;;;;;;;;5070177;27;50859;-57
2021/08/31 00:49:29;;;;;;;;;15.33;13.67;;;;;;;;5072385;28;50971;-56
2021/08/31 00:51:57;;;;;;;;;15.67;13.00;;;;;;;;5072896;28;50938;-56
2021/08/31 00:54:22;;;;;;;;;14.00;13.00;;;;;;;;5074187;28;50937;-55
2021/08/31 00:56:48;;;;;;;;;12.00;12.00;;;;;;;;5074108;28;51089;-56
2021/08/31 00:59:15;;;;;;;;;12.67;12.33;;;;;;;;5072673;28;51264;-56
2021/08/31 01:01:41;;;;;;;;;13.33;12.67;;;;;;;;5073850;28;51138;-56
2021/08/31 01:04:06;;;;;;;;;14.00;13.00;;;;;;;;5074147;28;51255;-57
2021/08/31 01:06:31;;;;;;;;;13.00;12.67;;;;;;;;5073586;28;51094;-55
2021/08/31 01:08:57;;;;;;;;;15.00;13.67;;;;;;;;5065000;28;51780;-56
2021/08/31 01:11:23;;;;;;;;;11.00;11.00;;;;;;;;5073599;27;51099;-56
2021/08/31 01:13:48;;;;;;;;;17.33;16.00;;;;;;;;5073357;28;51303;-56
2021/08/31 01:16:14;;;;;;;;;14.00;13.33;;;;;;;;5065026;27;51061;-56
2021/08/31 01:18:39;;;;;;;;;16.00;14.00;;;;;;;;5062257;28;52208;-54
2021/08/31 01:21:04;;;;;;;;;12.67;10.00;;;;;;;;5073686;28;51279;-55
2021/08/31 01:23:30;;;;;;;;;12.33;11.33;;;;;;;;5073053;28;51037;-57
2021/08/31 01:25:57;;;;;;;;;12.67;12.00;;;;;;;;5073845;28;51084;-55
2021/08/31 01:28:23;;;;;;;;;11.33;11.00;;;;;;;;5068797;28;51346;-53
2021/08/31 01:30:49;;;;;;;;;10.67;10.67;;;;;;;;5063451;28;50936;-55
2021/08/31 01:33:15;;;;;;;;;13.67;12.67;;;;;;;;5073166;28;51044;-55
2021/08/31 01:35:40;;;;;;;;;11.00;10.33;;;;;;;;5066981;28;51003;-55
2021/08/31 01:38:05;;;;;;;;;14.33;12.67;;;;;;;;5071642;28;50954;-55
2021/08/31 01:40:30;;;;;;;;;12.00;11.00;;;;;;;;5073436;28;50899;-56
2021/08/31 01:42:56;;;;;;;;;12.33;10.33;;;;;;;;5062995;28;50943;-56
2021/08/31 01:45:21;;;;;;;;;9.00;9.00;;;;;;;;5073539;28;51031;-55
2021/08/31 01:47:46;;;;;;;;;12.00;11.00;;;;;;;;5070783;28;51253;-56
2021/08/31 01:50:11;;;;;;;;;9.67;9.67;;;;;;;;5070223;28;50852;-56
2021/08/31 01:52:37;;;;;;;;;9.33;8.33;;;;;;;;5067943;28;51189;-55
2021/08/31 01:55:04;;;;;;;;;8.00;7.67;;;;;;;;5055146;28;51284;-56
2021/08/31 01:57:29;;;;;;;;;13.00;12.00;;;;;;;;5069378;28;52258;-56
2021/08/31 01:59:54;;;;;;;;;15.00;11.33;;;;;;;;5061971;28;50966;-58
2021/08/31 02:02:19;;;;;;;;;10.33;9.33;;;;;;;;5059813;28;51634;-56
2021/08/31 02:04:44;;;;;;;;;12.33;11.33;;;;;;;;5052628;28;51061;-56
2021/08/31 02:07:10;;;;;;;;;13.33;12.00;;;;;;;;5072379;28;52007;-55
2021/08/31 02:09:35;;;;;;;;;10.33;8.67;;;;;;;;5065464;28;51135;-56
2021/08/31 02:12:00;;;;;;;;;14.00;11.33;;;;;;;;5071427;27;50955;-55
2021/08/31 02:14:25;;;;;;;;;10.33;10.00;;;;;;;;5060792;28;51068;-55
2021/08/31 02:16:50;;;;;;;;;13.67;11.67;;;;;;;;5063227;28;52437;-55
2021/08/31 02:19:15;;;;;;;;;10.00;10.00;;;;;;;;5066365;28;51122;-56
2021/08/31 02:21:41;;;;;;;;;11.00;10.00;;;;;;;;5070374;28;51255;-56
2021/08/31 02:24:06;;;;;;;;;9.00;9.00;;;;;;;;5064728;28;51061;-56
2021/08/31 02:26:33;;;;;;;;;9.00;9.00;;;;;;;;5072633;28;51080;-56
2021/08/31 02:28:58;;;;;;;;;9.33;9.00;;;;;;;;5062955;28;51092;-57
2021/08/31 02:31:23;;;;;;;;;13.67;11.67;;;;;;;;5058562;28;51080;-56
2021/08/31 02:33:48;;;;;;;;;8.67;8.67;;;;;;;;5065430;28;51109;-55
2021/08/31 02:36:13;;;;;;;;;9.75;9.75;;;;;;;;5072423;28;52595;-55
2021/08/31 02:38:39;;;;;;;;;11.00;11.00;;;;;;;;5065319;28;51243;-56
2021/08/31 02:41:04;;;;;;;;;12.67;11.67;;;;;;;;5071664;28;50933;-55
2021/08/31 02:43:29;;;;;;;;;12.67;9.00;;;;;;;;5071004;28;50907;-56
2021/08/31 02:45:54;;;;;;;;;10.33;10.33;;;;;;;;5059213;28;51313;-55
2021/08/31 02:48:19;;;;;;;;;13.33;12.67;;;;;;;;5069737;28;50913;-54
2021/08/31 02:50:45;;;;;;;;;13.00;11.67;;;;;;;;5072667;28;50890;-56
2021/08/31 02:53:10;;;;;;;;;11.67;11.00;;;;;;;;5072252;28;50891;-56
2021/08/31 02:55:35;;;;;;;;;12.67;11.67;;;;;;;;5071910;28;51124;-55
2021/08/31 02:58:00;;;;;;;;;10.00;10.00;;;;;;;;5070637;28;51052;-54
2021/08/31 03:00:30;;;;;;;;;11.00;10.67;;;;;;;;5047959;28;51268;-55
2021/08/31 03:02:56;;;;;;;;;11.67;11.33;;;;;;;;5065232;28;50956;-55
2021/08/31 03:05:21;;;;;;;;;13.33;12.00;;;;;;;;5066941;28;51456;-58
2021/08/31 03:07:46;;;;;;;;;13.33;12.00;;;;;;;;5061675;28;51171;-58
2021/08/31 03:10:11;;;;;;;;;11.33;11.33;;;;;;;;5069581;28;51243;-54
2021/08/31 03:12:36;;;;;;;;;13.67;11.00;;;;;;;;5041388;28;51457;-56
2021/08/31 03:15:02;;;;;;;;;12.33;11.67;;;;;;;;5073344;28;52209;-54
2021/08/31 03:17:27;;;;;;;;;13.00;11.00;;;;;;;;5053981;28;51065;-57
2021/08/31 03:19:52;;;;;;;;;12.67;11.00;;;;;;;;5052290;28;51375;-56
2021/08/31 03:22:18;;;;;;;;;13.00;11.67;;;;;;;;5075472;28;50957;-55
2021/08/31 03:24:44;;;;;;;;;15.00;11.00;;;;;;;;5075215;28;51577;-55
2021/08/31 03:27:09;;;;;;;;;16.33;13.67;;;;;;;;5069048;28;51186;-55
2021/08/31 03:29:34;;;;;;;;;12.00;11.33;;;;;;;;5069419;28;51293;-55
2021/08/31 03:31:59;;;;;;;;;15.00;12.00;;;;;;;;5073657;28;50846;-56
2021/08/31 03:34:24;;;;;;;;;10.33;10.00;;;;;;;;5074856;28;51252;-54
2021/08/31 03:36:50;;;;;;;;;11.67;10.67;;;;;;;;5075362;28;50968;-55
2021/08/31 03:39:15;;;;;;;;;14.00;13.00;;;;;;;;5073955;28;50987;-55
2021/08/31 03:41:41;;;;;;;;;12.33;11.00;;;;;;;;5075623;28;51249;-56
2021/08/31 03:44:06;;;;;;;;;12.67;11.00;;;;;;;;5074752;28;51781;-56
2021/08/31 03:46:32;;;;;;;;;12.33;11.67;;;;;;;;5070824;28;51068;-56
2021/08/31 03:48:57;;;;;;;;;13.00;12.00;;;;;;;;5057733;28;51004;-55
2021/08/31 03:51:22;;;;;;;;;13.67;12.67;;;;;;;;5056924;28;51355;-56
2021/08/31 03:53:47;;;;;;;;;12.00;12.00;;;;;;;;5074660;28;51958;-57
2021/08/31 03:56:12;;;;;;;;;11.00;10.33;;;;;;;;5074824;28;51284;-56
2021/08/31 03:58:38;;;;;;;;;11.67;11.33;;;;;;;;5065145;28;51071;-56
2021/08/31 04:01:03;;;;;;;;;12.00;12.00;;;;;;;;5073497;28;51078;-56
2021/08/31 04:03:28;;;;;;;;;14.33;13.33;;;;;;;;5060866;28;52082;-56
2021/08/31 04:05:53;;;;;;;;;11.33;11.33;;;;;;;;5074266;28;50998;-57
2021/08/31 04:08:18;;;;;;;;;14.33;13.67;;;;;;;;5073077;28;51180;-56
2021/08/31 04:10:43;;;;;;;;;15.00;14.33;;;;;;;;5075422;28;51073;-56
2021/08/31 04:13:11;;;;;;;;;14.75;13.75;;;;;;;;5060585;27;51268;-57
2021/08/31 04:15:36;;;;;;;;;16.33;15.67;;;;;;;;5074873;28;51150;-55
2021/08/31 04:18:01;;;;;;;;;16.00;15.25;;;;;;;;5072251;28;51114;-55
2021/08/31 04:20:26;;;;;;;;;17.50;17.00;;;;;;;;5049145;28;51499;-55
2021/08/31 04:22:52;;;;;;;;;22.25;17.75;;;;;;;;5068956;28;52109;-56
2021/08/31 04:25:17;;;;;;;;;19.00;18.00;;;;;;;;5061402;28;51207;-56
2021/08/31 04:27:42;;;;;;;;;18.50;17.00;;;;;;;;5072615;28;51125;-55
2021/08/31 04:30:07;;;;;;;;;19.50;19.00;;;;;;;;5062176;28;51221;-56
2021/08/31 04:32:33;;;;;;;;;17.33;16.33;;;;;;;;5045756;28;51258;-55
2021/08/31 04:35:02;;;;;;;;;18.00;17.75;;;;;;;;5067123;28;51115;-56
2021/08/31 04:37:27;;;;;;;;;19.25;17.50;;;;;;;;5073831;28;51198;-55
2021/08/31 04:39:52;;;;;;;;;20.25;19.75;;;;;;;;5063207;28;51379;-56
2021/08/31 04:42:18;;;;;;;;;16.25;14.75;;;;;;;;5071162;27;51852;-56
2021/08/31 04:44:43;;;;;;;;;18.25;17.50;;;;;;;;5074296;28;51017;-56
2021/08/31 04:47:08;;;;;;;;;19.50;18.25;;;;;;;;5074085;28;51252;-58
2021/08/31 04:49:33;;;;;;;;;21.25;19.75;;;;;;;;5065200;28;51057;-55
2021/08/31 04:51:58;;;;;;;;;19.25;18.50;;;;;;;;5067372;28;51990;-55
2021/08/31 04:54:24;;;;;;;;;20.50;19.50;;;;;;;;5066646;28;51052;-54
2021/08/31 04:56:49;;;;;;;;;21.00;18.50;;;;;;;;5072143;28;51072;-56
2021/08/31 04:59:14;;;;;;;;;21.50;20.75;;;;;;;;5072452;28;51047;-55
2021/08/31 05:01:39;;;;;;;;;18.75;18.50;;;;;;;;5067463;28;51088;-55
2021/08/31 05:04:04;;;;;;;;;22.75;20.00;;;;;;;;5065121;28;51005;-55
2021/08/31 05:06:30;;;;;;;;;20.00;19.25;;;;;;;;5073574;28;51177;-58
2021/08/31 05:08:56;;;;;;;;;19.50;17.75;;;;;;;;5065817;28;51220;-54
2021/08/31 05:11:21;;;;;;;;;23.50;20.75;;;;;;;;5062064;28;52049;-56
2021/08/31 05:13:46;;;;;;;;;20.50;19.00;;;;;;;;5069823;27;51072;-55
2021/08/31 05:16:13;;;;;;;;;19.50;18.75;;;;;;;;5072243;28;51117;-55
2021/08/31 05:18:38;;;;;;;;;20.67;19.67;;;;;;;;5057535;27;51203;-58
2021/08/31 05:21:04;;;;;;;;;19.25;18.75;;;;;;;;5062430;28;51415;-55
2021/08/31 05:23:29;;;;;;;;;27.25;23.25;;;;;;;;5065985;28;51073;-54
2021/08/31 05:25:54;;;;;;;;;25.00;22.75;;;;;;;;5074076;28;50867;-57
2021/08/31 05:28:19;;;;;;;;;22.50;22.25;;;;;;;;5073699;28;50844;-55
2021/08/31 05:30:44;;;;;;;;;21.50;21.00;;;;;;;;5067283;28;52149;-55
2021/08/31 05:33:10;;;;;;;;;23.75;23.00;;;;;;;;5072437;28;51186;-56
2021/08/31 05:35:35;;;;;;;;;29.00;24.75;;;;;;;;5063335;28;50955;-56
2021/08/31 05:38:00;;;;;;;;;25.00;24.50;;;;;;;;5071707;28;51410;-59
2021/08/31 05:40:25;;;;;;;;;29.25;26.00;;;;;;;;5072586;28;51063;-56
2021/08/31 05:42:51;;;;;;;;;27.75;25.75;;;;;;;;5072259;28;51174;-56
2021/08/31 05:45:16;;;;;;;;;24.25;23.75;;;;;;;;5071479;27;51282;-55
2021/08/31 05:47:41;;;;;;;;;26.00;22.25;;;;;;;;5072568;28;51045;-56
2021/08/31 05:50:07;;;;;;;;;22.25;22.25;;;;;;;;5072288;28;51160;-56
2021/08/31 05:52:32;;;;;;;;;25.75;24.75;;;;;;;;5045563;28;51312;-57
2021/08/31 05:54:58;;;;;;;;;26.25;24.25;;;;;;;;5071691;28;50800;-56
2021/08/31 05:57:23;;;;;;;;;25.25;24.25;;;;;;;;5072686;28;51340;-55
2021/08/31 05:59:49;;;;;;;;;24.75;24.25;;;;;;;;5071098;28;52359;-55
2021/08/31 06:02:14;;;;;;;;;24.50;23.00;;;;;;;;5068164;27;51135;-56
2021/08/31 06:04:39;;;;;;;;;26.00;25.00;;;;;;;;5069778;27;51036;-56
2021/08/31 06:07:05;;;;;;;;;28.75;26.00;;;;;;;;5068055;28;50945;-56
2021/08/31 06:09:31;;;;;;;;;23.75;22.75;;;;;;;;5066544;28;52509;-55
2021/08/31 06:11:58;;;;;;;;;23.75;23.25;;;;;;;;5064153;28;51140;-56
2021/08/31 06:14:23;;;;;;;;;25.50;24.50;;;;;;;;5067829;28;51083;-58
2021/08/31 06:16:49;;;;;;;;;27.50;26.00;;;;;;;;5060672;28;51282;-56
2021/08/31 06:19:14;;;;;;;;;26.00;23.25;;;;;;;;5070864;28;51287;-56
2021/08/31 06:21:39;;;;;;;;;26.50;26.00;;;;;;;;5072092;27;51131;-57
2021/08/31 06:24:04;;;;;;;;;31.75;29.75;;;;;;;;5053307;28;50972;-57
2021/08/31 06:26:29;;;;;;;;;29.00;27.75;;;;;;;;5072574;28;51111;-56
2021/08/31 06:28:55;;;;;;;;;28.50;27.00;;;;;;;;5071580;28;51978;-57
2021/08/31 06:31:20;;;;;;;;;29.00;28.00;;;;;;;;5072371;28;51106;-56
2021/08/31 06:33:46;;;;;;;;;26.25;25.50;;;;;;;;5071833;28;51215;-56
2021/08/31 06:36:12;;;;;;;;;30.25;28.75;;;;;;;;5071770;28;51238;-54
2021/08/31 06:38:37;;;;;;;;;27.50;26.00;;;;;;;;5071619;28;51056;-56
2021/08/31 06:41:04;;;;;;;;;30.75;27.75;;;;;;;;5071967;28;50946;-55
2021/08/31 06:43:30;;;;;;;;;37.50;31.25;;;;;;;;5071855;28;50950;-56
2021/08/31 06:45:55;;;;;;;;;31.25;28.25;;;;;;;;5053398;28;50949;-54
2021/08/31 06:48:20;;;;;;;;;28.50;28.00;;;;;;;;5071163;28;52121;-58
2021/08/31 06:50:45;;;;;;;;;27.50;25.25;;;;;;;;5074667;28;51088;-55
2021/08/31 06:53:10;;;;;;;;;30.50;28.00;;;;;;;;5074903;28;50904;-55
2021/08/31 06:55:36;;;;;;;;;30.25;28.00;;;;;;;;5076037;28;50887;-56
2021/08/31 06:58:02;;;;;;;;;27.75;27.75;;;;;;;;5074785;28;51019;-56
2021/08/31 07:00:27;;;;;;;;;26.00;25.25;;;;;;;;5057267;28;51059;-56
2021/08/31 07:02:52;;;;;;;;;33.00;30.00;;;;;;;;5075112;28;51150;-57
2021/08/31 07:05:17;;;;;;;;;30.25;29.50;;;;;;;;5075314;28;51034;-57
2021/08/31 07:07:43;;;;;;;;;31.00;29.50;;;;;;;;5074628;28;52099;-55
2021/08/31 07:10:08;;;;;;;;;26.75;26.25;;;;;;;;5075085;28;50890;-56
2021/08/31 07:12:33;;;;;;;;;23.50;23.50;;;;;;;;5075034;28;50922;-56
2021/08/31 07:14:59;;;;;;;;;30.50;29.25;;;;;;;;5075285;28;51185;-55
2021/08/31 07:17:24;;;;;;;;;32.25;28.00;;;;;;;;5073369;27;52279;-55
2021/08/31 07:19:49;;;;;;;;;28.75;27.75;;;;;;;;5077629;27;51108;-56
2021/08/31 07:22:16;;;;;;;;;34.75;30.25;;;;;;;;5075033;28;51265;-57
2021/08/31 07:24:42;;;;;;;;;33.75;32.25;;;;;;;;5075285;28;51279;-56
2021/08/31 07:27:07;;;;;;;;;29.25;26.25;;;;;;;;5056419;28;53918;-56
2021/08/31 07:29:32;;;;;;;;;32.50;28.50;;;;;;;;5075215;28;51235;-57
2021/08/31 07:31:57;;;;;;;;;30.00;28.50;;;;;;;;5056938;28;51295;-56
2021/08/31 07:34:23;;;;;;;;;28.75;27.50;;;;;;;;5075090;28;51070;-56
2021/08/31 07:36:48;;;;;;;;;32.75;31.75;;;;;;;;5074348;28;51683;-55
2021/08/31 07:39:13;;;;;;;;;30.25;28.25;;;;;;;;5056822;28;51014;-56
2021/08/31 07:41:39;;;;;;;;;31.00;29.50;;;;;;;;5075002;28;51270;-55
2021/08/31 07:44:04;;;;;;;;;31.00;29.00;;;;;;;;5074672;28;51140;-55
2021/08/31 07:46:30;;;;;;;;;28.00;25.50;;;;;;;;5074240;28;51173;-55
2021/08/31 07:48:56;;;;;;;;;32.75;29.75;;;;;;;;5075120;28;51028;-56
2021/08/31 07:51:21;;;;;;;;;32.50;30.00;;;;;;;;5074498;28;50967;-56
2021/08/31 07:53:47;;;;;;;;;32.25;31.00;;;;;;;;5074824;28;51100;-55
2021/08/31 07:56:12;;;;;;;;;28.50;27.75;;;;;;;;5073749;28;51969;-55
2021/08/31 07:58:37;;;;;;;;;34.00;31.25;;;;;;;;5074552;28;51143;-55
2021/08/31 08:01:03;;;;;;;;;27.75;26.25;;;;;;;;5073982;28;51286;-56
2021/08/31 08:03:28;;;;;;;;;32.00;29.75;;;;;;;;5074664;28;50960;-54
2021/08/31 08:05:54;;;;;;;;;28.50;27.50;;;;;;;;5073710;28;50898;-55
2021/08/31 08:08:19;;;;;;;;;25.00;24.00;;;;;;;;5073772;28;50998;-55
2021/08/31 08:10:44;;;;;;;;;30.00;28.50;;;;;;;;5055811;28;51178;-56
2021/08/31 08:13:09;;;;;;;;;28.50;25.50;;;;;;;;5055602;28;51279;-56
2021/08/31 08:15:35;;;;;;;;;32.50;30.25;;;;;;;;5074130;28;52098;-56
2021/08/31 08:18:00;;;;;;;;;28.50;26.75;;;;;;;;5074292;28;50888;-56
2021/08/31 08:20:26;;;;;;;;;25.50;24.25;;;;;;;;5074372;28;50908;-56
2021/08/31 08:22:51;;;;;;;;;23.25;22.00;;;;;;;;5074220;28;51013;-56
2021/08/31 08:25:16;;;;;;;;;26.25;23.50;;;;;;;;5073566;28;52009;-56
2021/08/31 08:27:42;;;;;;;;;27.75;25.75;;;;;;;;5074059;28;50846;-56
2021/08/31 08:30:08;;;;;;;;;28.25;26.75;;;;;;;;5073718;28;51155;-54
2021/08/31 08:32:33;;;;;;;;;25.67;24.67;;;;;;;;5074681;28;50894;-54
2021/08/31 08:34:58;;;;;;;;;23.67;23.00;;;;;;;;5073550;28;51142;-55
2021/08/31 08:37:23;;;;;;;;;19.00;18.00;;;;;;;;5073519;28;50920;-55
2021/08/31 08:39:49;;;;;;;;;23.33;20.33;;;;;;;;5073860;28;51013;-55
2021/08/31 08:42:14;;;;;;;;;24.67;23.00;;;;;;;;5074079;28;51437;-56
2021/08/31 08:44:39;;;;;;;;;22.00;20.33;;;;;;;;5073485;28;50947;-57
2021/08/31 08:47:05;;;;;;;;;14.00;13.67;;;;;;;;5074049;28;51218;-57
2021/08/31 08:49:30;;;;;;;;;17.00;17.00;;;;;;;;5073789;28;51101;-55
2021/08/31 08:51:56;;;;;;;;;21.00;19.00;;;;;;;;5055039;28;51164;-58
2021/08/31 08:54:22;;;;;;;;;22.67;22.67;;;;;;;;5073028;28;51035;-56
2021/08/31 08:56:47;;;;;;;;;20.33;19.33;;;;;;;;5073131;28;51239;-56
2021/08/31 08:59:13;;;;;;;;;18.00;18.00;;;;;;;;5073625;28;51029;-56
2021/08/31 09:01:40;;;;;;;;;22.00;20.33;;;;;;;;5073759;28;51023;-56
2021/08/31 09:04:05;;;;;;;;;26.50;25.50;;;;;;;;5069788;28;52400;-56
2021/08/31 09:06:31;;;;;;;;;20.67;19.67;;;;;;;;5073324;28;50959;-55
2021/08/31 09:08:57;;;;;;;;;19.67;18.67;;;;;;;;5073029;28;51256;-58
2021/08/31 09:11:25;;;;;;;;;20.67;20.67;;;;;;;;5073732;28;51143;-57
2021/08/31 09:13:51;;;;;;;;;20.33;19.00;;;;;;;;5072584;28;51201;-58
2021/08/31 09:16:21;;;;;;;;;20.00;20.00;;;;;;;;5073207;28;51085;-57
2021/08/31 09:18:51;;;;;;;;;20.33;19.67;;;;;;;;5067954;27;51354;-57
2021/08/31 09:21:20;;;;;;;;;22.67;20.33;;;;;;;;5053645;28;51259;-54
2021/08/31 09:23:48;;;;;;;;;23.67;23.00;;;;;;;;5072703;28;50951;-54
2021/08/31 09:26:18;;;;;;;;;23.00;22.00;;;;;;;;5072823;28;50927;-54
2021/08/31 09:28:43;;;;;;;;;20.33;19.33;;;;;;;;5073193;28;51156;-55
2021/08/31 09:31:15;;;;;;;;;25.25;24.25;;;;;;;;5054715;28;51040;-56
2021/08/31 09:33:41;;;;;;;;;17.33;16.33;;;;;;;;5072635;28;52328;-54
2021/08/31 09:36:14;;;;;;;;;20.00;20.00;;;;;;;;5072415;28;51049;-54
2021/08/31 09:38:44;;;;;;;;;25.33;24.33;;;;;;;;5072726;28;51032;-55
2021/08/31 09:41:10;;;;;;;;;23.00;22.25;;;;;;;;5072903;28;51183;-56
2021/08/31 09:43:46;;;;;;;;;22.33;19.67;;;;;;;;5071940;28;50986;-56
2021/08/31 09:46:11;;;;;;;;;22.00;21.67;;;;;;;;5068467;28;51186;-55
2021/08/31 09:48:39;;;;;;;;;18.00;17.00;;;;;;;;5074942;27;51430;-59
2021/08/31 09:51:05;;;;;;;;;20.00;19.67;;;;;;;;5061565;28;51211;-57
2021/08/31 09:53:35;;;;;;;;;25.00;24.00;;;;;;;;5064663;28;52011;-57
2021/08/31 09:56:06;;;;;;;;;19.00;18.00;;;;;;;;5071556;28;51158;-55
2021/08/31 09:58:33;;;;;;;;;24.25;23.75;;;;;;;;5071782;28;51098;-56
2021/08/31 10:00:58;;;;;;;;;16.25;15.50;;;;;;;;5071940;28;51209;-55
2021/08/31 10:03:24;;;;;;;;;26.75;26.00;;;;;;;;5067238;27;51673;-56
2021/08/31 10:05:51;;;;;;;;;25.00;23.50;;;;;;;;5071579;28;50969;-55
2021/08/31 10:08:16;;;;;;;;;23.00;21.50;;;;;;;;5061265;28;51130;-57
2021/08/31 10:10:42;;;;;;;;;25.50;23.50;;;;;;;;5071582;28;51169;-56
2021/08/31 10:13:10;;;;;;;;;22.75;21.50;;;;;;;;5071077;28;52131;-57
2021/08/31 10:15:38;;;;;;;;;28.25;26.00;;;;;;;;5053019;28;51207;-57
2021/08/31 10:18:04;;;;;;;;;27.50;25.50;;;;;;;;5071193;28;50988;-57
2021/08/31 10:20:30;;;;;;;;;22.25;22.25;;;;;;;;5071181;28;50859;-56
2021/08/31 10:22:58;;;;;;;;;22.00;21.25;;;;;;;;5070656;28;51849;-59
2021/08/31 10:25:25;;;;;;;;;30.25;29.00;;;;;;;;5070103;28;50914;-57
2021/08/31 10:27:51;;;;;;;;;23.25;22.75;;;;;;;;5071096;28;51162;-56
2021/08/31 10:30:16;;;;;;;;;27.25;26.75;;;;;;;;5070957;28;51320;-55
2021/08/31 10:32:43;;;;;;;;;26.25;25.25;;;;;;;;5070467;28;51043;-57
2021/08/31 10:35:08;;;;;;;;;27.50;26.75;;;;;;;;5070593;28;51040;-56
2021/08/31 10:37:43;;;;;;;;;27.25;27.00;;;;;;;;5068004;28;51163;-55
2021/08/31 10:40:09;;;;;;;;;27.50;27.25;;;;;;;;5035782;28;51353;-57
2021/08/31 10:42:34;;;;;;;;;20.00;19.00;;;;;;;;5069309;28;51084;-56
2021/08/31 10:45:00;;;;;;;;;20.25;19.75;;;;;;;;5062867;28;50900;-54
2021/08/31 10:47:32;;;;;;;;;17.67;16.67;;;;;;;;5070578;28;51146;-55
2021/08/31 10:49:57;;;;;;;;;17.67;17.00;;;;;;;;5070344;28;51147;-56
2021/08/31 10:52:32;;;;;;;;;18.67;18.67;;;;;;;;5058748;28;51737;-56
2021/08/31 10:54:57;;;;;;;;;18.00;17.67;;;;;;;;5070318;28;51119;-56
2021/08/31 10:57:34;;;;;;;;;20.67;19.67;;;;;;;;5070226;28;51034;-57
2021/08/31 11:00:00;;;;;;;;;20.67;20.67;;;;;;;;5070324;28;51320;-58
2021/08/31 11:02:43;;;;;;;;;16.67;16.67;;;;;;;;5051489;28;54129;-57
2021/08/31 11:05:17;;;;;;;;;24.00;22.33;;;;;;;;5070090;28;51060;-58
2021/08/31 11:07:43;;;;;;;;;18.33;17.67;;;;;;;;5069774;28;51188;-57
2021/08/31 11:10:08;;;;;;;;;18.75;17.50;;;;;;;;5070048;28;51190;-56
2021/08/31 11:12:33;;;;;;;;;21.25;20.25;;;;;;;;5069903;28;51999;-58
2021/08/31 11:14:59;;;;;;;;;21.50;20.00;;;;;;;;5069366;28;51050;-57
2021/08/31 11:17:28;;;;;;;;;19.67;18.00;;;;;;;;5070402;28;51254;-56
2021/08/31 11:20:07;;;;;;;;;23.00;22.75;;;;;;;;5063305;27;50860;-56
2021/08/31 11:22:32;;;;;;;;;22.00;20.00;;;;;;;;5063215;28;52245;-56
2021/08/31 11:24:58;;;;;;;;;24.25;24.25;;;;;;;;5070250;28;51076;-56
2021/08/31 11:27:23;;;;;;;;;20.00;20.00;;;;;;;;5062928;28;51040;-58
2021/08/31 11:29:55;;;;;;;;;21.33;21.00;;;;;;;;5064009;28;51132;-57
2021/08/31 11:32:20;;;;;;;;;20.67;20.00;;;;;;;;5070207;28;52417;-57
2021/08/31 11:34:59;;;;;;;;;20.33;19.67;;;;;;;;5070189;28;51049;-56
2021/08/31 11:37:24;;;;;;;;;20.33;20.00;;;;;;;;5073341;28;51092;-57
2021/08/31 11:39:56;;;;;;;;;22.67;22.00;;;;;;;;5073869;28;50882;-55
2021/08/31 11:42:21;;;;;;;;;16.67;16.67;;;;;;;;5073051;28;52086;-57
2021/08/31 11:44:56;;;;;;;;;18.00;17.00;;;;;;;;5072998;28;51059;-56
2021/08/31 11:47:22;;;;;;;;;19.67;19.33;;;;;;;;5072687;28;51119;-57
2021/08/31 11:49:48;;;;;;;;;20.00;20.00;;;;;;;;5054861;28;51331;-57
2021/08/31 11:52:19;;;;;;;;;19.00;19.00;;;;;;;;5072862;28;51229;-56
2021/08/31 11:54:55;;;;;;;;;20.33;19.33;;;;;;;;5054443;28;51200;-57
2021/08/31 11:57:21;;;;;;;;;18.67;18.00;;;;;;;;5073162;28;51148;-56
2021/08/31 11:59:48;;;;;;;;;17.67;17.67;;;;;;;;5054814;28;51105;-57
2021/08/31 12:02:18;;;;;;;;;15.00;15.00;;;;;;;;5069227;28;51274;-57
2021/08/31 12:04:44;;;;;;;;;16.00;15.67;;;;;;;;5072969;28;50892;-56
2021/08/31 12:07:10;;;;;;;;;20.00;19.67;;;;;;;;5066477;27;51263;-57
2021/08/31 12:09:37;;;;;;;;;18.33;17.67;;;;;;;;5072714;28;51334;-57
2021/08/31 12:12:02;;;;;;;;;16.67;15.67;;;;;;;;5072623;28;52698;-56
2021/08/31 12:14:28;;;;;;;;;15.33;15.33;;;;;;;;5072483;27;51148;-57
2021/08/31 12:16:53;;;;;;;;;15.33;15.00;;;;;;;;5059706;28;51215;-56
2021/08/31 12:19:19;;;;;;;;;9.33;8.00;;;;;;;;5054556;28;51423;-57
2021/08/31 12:22:03;;;;;;;;;26.33;24.67;;;;;;;;5072402;28;52288;-56
2021/08/31 12:24:28;;;;;;;;;26.00;25.33;;;;;;;;5073054;28;50966;-55
2021/08/31 12:27:03;;;;;;;;;14.67;14.67;;;;;;;;5072580;28;51221;-57
2021/08/31 12:29:42;;;;;;;;;16.00;15.00;;;;;;;;5072573;28;51181;-55
2021/08/31 12:32:09;;;;;;;;;16.67;16.33;;;;;;;;5072085;28;51618;-57
2021/08/31 12:34:34;;;;;;;;;15.00;15.00;;;;;;;;5072185;28;51174;-56
2021/08/31 12:36:59;;;;;;;;;16.00;16.00;;;;;;;;5067844;28;51090;-57
2021/08/31 12:39:26;;;;;;;;;16.33;16.33;;;;;;;;5072173;28;51158;-56
2021/08/31 12:41:52;;;;;;;;;17.00;16.00;;;;;;;;5072256;28;51203;-56
2021/08/31 12:44:19;;;;;;;;;18.00;17.33;;;;;;;;5072050;28;51052;-55
2021/08/31 12:46:44;;;;;;;;;19.00;19.00;;;;;;;;5071416;28;50989;-55
2021/08/31 12:49:14;;;;;;;;;19.00;18.00;;;;;;;;5071887;28;51382;-57
2021/08/31 12:51:50;;;;;;;;;16.67;15.33;;;;;;;;5071694;28;51140;-56
2021/08/31 12:54:22;;;;;;;;;17.00;17.00;;;;;;;;5070942;28;51084;-57
2021/08/31 12:56:55;;;;;;;;;16.33;15.67;;;;;;;;5052974;28;50991;-56
2021/08/31 12:59:29;;;;;;;;;16.67;15.67;;;;;;;;5071771;28;51328;-57
2021/08/31 13:01:55;;;;;;;;;18.00;18.00;;;;;;;;5071057;28;51034;-58
2021/08/31 13:04:20;;;;;;;;;17.33;16.33;;;;;;;;5070937;28;51088;-57
2021/08/31 13:06:48;;;;;;;;;15.67;14.00;;;;;;;;5071538;28;51200;-56
2021/08/31 13:09:15;;;;;;;;;13.00;13.00;;;;;;;;5071996;27;51029;-56
2021/08/31 13:11:42;;;;;;;;;14.00;14.00;;;;;;;;5071720;28;53015;-56
2021/08/31 13:14:12;;;;;;;;;18.00;17.33;;;;;;;;5061276;28;51261;-56
2021/08/31 13:16:37;;;;;;;;;15.67;15.67;;;;;;;;5051309;27;51342;-55
2021/08/31 13:19:04;;;;;;;;;15.00;15.00;;;;;;;;5057167;27;51306;-57
2021/08/31 13:21:29;;;;;;;;;14.67;14.00;;;;;;;;5036220;27;52955;-59
2021/08/31 13:23:54;;;;;;;;;15.33;15.00;;;;;;;;5058459;27;51133;-57
2021/08/31 13:26:20;;;;;;;;;15.33;15.00;;;;;;;;5054327;27;51188;-57
2021/08/31 13:28:46;;;;;;;;;13.67;13.00;;;;;;;;5053652;27;51430;-56
2021/08/31 13:31:11;;;;;;;;;17.67;16.67;;;;;;;;5056829;27;51188;-57
2021/08/31 13:33:36;;;;;;;;;15.67;15.67;;;;;;;;5052907;27;51388;-56
2021/08/31 13:36:02;;;;;;;;;15.00;15.00;;;;;;;;5031193;27;51178;-57
2021/08/31 13:38:27;;;;;;;;;18.00;17.00;;;;;;;;5035964;28;51087;-56
2021/08/31 13:40:52;;;;;;;;;12.67;12.67;;;;;;;;5051839;27;51245;-57
2021/08/31 13:43:17;;;;;;;;;12.00;12.00;;;;;;;;5060612;27;51193;-57
2021/08/31 13:45:43;;;;;;;;;13.00;13.00;;;;;;;;5039220;27;51272;-57
2021/08/31 13:48:08;;;;;;;;;12.00;12.00;;;;;;;;5064459;27;51245;-58
2021/08/31 13:50:33;;;;;;;;;16.67;14.67;;;;;;;;5049415;27;51320;-57
2021/08/31 13:52:58;;;;;;;;;12.00;12.00;;;;;;;;5049628;27;51202;-56
2021/08/31 13:55:24;;;;;;;;;13.33;13.00;;;;;;;;5056081;27;51261;-57
2021/08/31 13:57:49;;;;;;;;;13.00;13.00;;;;;;;;5054832;27;51295;-57
2021/08/31 14:00:14;;;;;;;;;15.00;14.67;;;;;;;;5056509;27;51625;-56
2021/08/31 14:02:40;;;;;;;;;13.33;13.00;;;;;;;;5054085;27;51429;-56
2021/08/31 14:05:05;;;;;;;;;14.33;14.33;;;;;;;;5056688;27;51392;-57
2021/08/31 14:07:30;;;;;;;;;14.00;13.67;;;;;;;;5036504;28;51681;-58
2021/08/31 14:09:55;;;;;;;;;15.33;14.67;;;;;;;;5058921;27;51865;-56
2021/08/31 14:12:21;;;;;;;;;12.00;11.33;;;;;;;;5059690;27;51035;-57